createdAt,value
2023-01-20T13:17:25.955Z,5.00
2023-01-20T13:22:29.834Z,8.20
2023-01-20T13:27:38.371Z,8.00
2023-01-20T13:32:45.696Z,7.60
2023-01-20T13:37:52.135Z,7.30
2023-01-20T13:42:54.820Z,7.40
2023-01-20T13:48:08.492Z,7.10
2023-01-20T13:53:14.093Z,7.30
2023-01-20T13:58:19.488Z,7.40
2023-01-20T14:03:30.936Z,7.50
2023-01-20T14:08:48.028Z,7.30
2023-01-20T14:13:52.858Z,6.60
2023-01-20T14:18:59.599Z,6.40
2023-01-20T14:24:02.099Z,5.60
2023-01-20T14:29:04.579Z,5.30
2023-01-20T14:34:30.938Z,5.50
2023-01-20T14:39:33.558Z,5.40
2023-01-20T14:44:35.841Z,5.70
2023-01-20T14:49:41.952Z,5.60
2023-01-20T14:54:49.749Z,5.20
2023-01-20T15:00:19.467Z,5.20
2023-01-20T15:05:23.513Z,5.00
2023-01-20T15:10:25.705Z,5.00
2023-01-20T15:15:30.907Z,4.90
2023-01-20T15:20:36.029Z,4.90
2023-01-20T15:25:38.082Z,5.20
2023-01-20T15:30:40.139Z,4.80
2023-01-20T15:35:42.995Z,4.60
2023-01-20T15:40:45.104Z,4.50
2023-01-20T15:45:47.446Z,4.50
2023-01-20T15:50:49.953Z,4.70
2023-01-20T15:55:52.408Z,4.20
2023-01-20T16:00:56.787Z,4.00
2023-01-20T16:05:58.915Z,3.90
2023-01-20T16:11:01.555Z,4.00
2023-01-20T16:16:04.481Z,3.80
2023-01-20T16:21:07.329Z,3.80
2023-01-20T16:26:23.476Z,3.70
2023-01-20T16:31:27.667Z,4.00
2023-01-20T16:36:29.819Z,4.30
2023-01-20T16:41:32.308Z,4.10
2023-01-20T16:46:34.791Z,3.70
2023-01-20T16:51:36.880Z,3.60
2023-01-20T16:56:40.282Z,3.60
2023-01-20T17:01:42.427Z,3.60
2023-01-20T17:06:44.576Z,3.50
